Terminal Aerodrome Forecast
Issued by NWS

Home | Current Version | Previous Version | Text Only | Print | Product List | Glossary On
Versions: 1 2 3 4 5 6 7 8 9 10 11 12 13 14 15 16 17 18 19 20 21 22 23 24 25 26 27
000
FTPQ31 PGUM 272320
TAFGUM
TAF

TAF
PKMJ 272320Z 2800/2824 14007KT P6SM VCSH FEW012 BKN045 OVC110
      TEMPO 2800/2803 VRB12G20KT 3SM +SHRA SCT012 OVC025
     FM280500 15008KT P6SM VCSH SCT015 SCT035 BKN110=

USA.gov is the U.S. government's official web portal to all federal, state and local government web resources and services.